Flight Briefing for CPX324

Departure Arrival
March Air Reserve Base (KRIV)
Click to view FAA NOTAMS
Daniel K Inouye International Airport (PHNL)
Click to view FAA NOTAMS
Departure Time Arrival Time
N/A N/A
Aircraft Distance
B767-300BDSF 2277nm
Departure METAR Arrival METAR
KRIV 151958Z 13003KT 10SM SCT025 BKN050 BKN130 BKN200 12/11 A3011 RMK AO2A SLP197 T01190105 PHNL 151953Z 02011KT 10SM FEW025 SCT040 BKN060 23/15 A3002 RMK AO2 SLP165 T02330150
Suggested Route
SKYES3 OCN MALIT C1177 FICKY R578 FOMAS R578 DEREC MAKEN LNY JULLE5


View recent IFR Routes data
Notes



Charts and Procedures

Charts for KRIV
No chart available
Charts for PHNL
No chart available

Ventusky Weather